Time;durP1;ratioP1;P1;durP2;ratioP2;P2;SDS_P1;SDS_P2;PMS_P1;PMS_P2;Temp;Humidity;BMP_temperature;BMP_pressure;BME280_temperature;BME280_humidity;BME280_pressure;Samples;Min_cycle;Max_cycle;Signal;HPM_P1;HPM_P2
2024/03/31 00:00:16;;;;;;;21.33;3.00;;;11.10;68.80;;;;;;5012588;28;20045;-63
2024/03/31 00:02:41;;;;;;;28.33;2.55;;;11.10;68.90;;;;;;5009012;28;20053;-63
2024/03/31 00:05:07;;;;;;;26.92;2.58;;;11.20;69.20;;;;;;5002080;28;20034;-62
2024/03/31 00:07:33;;;;;;;20.60;2.65;;;11.30;69.00;;;;;;4988288;28;20070;-62
2024/03/31 00:09:59;;;;;;;20.30;2.63;;;11.30;69.00;;;;;;5008017;28;20030;-62
2024/03/31 00:12:25;;;;;;;26.15;2.78;;;11.40;68.60;;;;;;4992662;28;20379;-62
2024/03/31 00:14:51;;;;;;;15.63;2.50;;;11.50;68.70;;;;;;4999912;28;20118;-63
2024/03/31 00:17:16;;;;;;;19.25;2.20;;;11.50;68.20;;;;;;4997586;28;20046;-62
2024/03/31 00:19:43;;;;;;;13.57;2.38;;;11.60;68.10;;;;;;4986094;28;20036;-63
2024/03/31 00:22:09;;;;;;;24.27;2.90;;;11.70;68.00;;;;;;5002745;28;20590;-62
2024/03/31 00:24:34;;;;;;;16.63;2.35;;;11.70;67.60;;;;;;4999150;28;20048;-63
2024/03/31 00:27:00;;;;;;;20.60;2.28;;;11.80;67.60;;;;;;5019299;28;20084;-62
2024/03/31 00:29:25;;;;;;;15.75;2.15;;;11.80;67.50;;;;;;5003503;28;20568;-62
2024/03/31 00:31:51;;;;;;;21.98;2.78;;;11.80;67.30;;;;;;5016016;28;20029;-62
2024/03/31 00:34:16;;;;;;;21.02;2.42;;;11.90;67.30;;;;;;5017754;28;20083;-62
2024/03/31 00:36:44;;;;;;;17.13;2.28;;;11.90;67.40;;;;;;5014787;28;20026;-62
2024/03/31 00:39:09;;;;;;;15.10;2.20;;;11.90;67.30;;;;;;5036894;28;20527;-62
2024/03/31 00:41:35;;;;;;;15.93;1.90;;;12.00;67.30;;;;;;4999689;28;20117;-60
2024/03/31 00:44:02;;;;;;;17.25;2.35;;;12.00;67.30;;;;;;5000259;28;20026;-62
2024/03/31 00:46:28;;;;;;;18.95;2.13;;;12.10;67.50;;;;;;5010714;28;20023;-62
2024/03/31 00:48:53;;;;;;;19.88;2.40;;;12.10;67.20;;;;;;5007597;28;20079;-62
2024/03/31 00:51:19;;;;;;;9.80;2.00;;;12.10;67.00;;;;;;5017202;28;20041;-62
2024/03/31 00:53:44;;;;;;;19.40;2.22;;;12.20;67.10;;;;;;5017344;28;20068;-62
2024/03/31 00:56:10;;;;;;;17.40;1.85;;;12.20;67.10;;;;;;5006155;28;20490;-62
2024/03/31 00:58:36;;;;;;;15.57;1.85;;;12.30;67.20;;;;;;5016136;28;20144;-63
2024/03/31 01:01:03;;;;;;;16.52;2.42;;;12.30;67.40;;;;;;5023263;28;20033;-62
2024/03/31 01:03:29;;;;;;;16.58;2.08;;;12.40;67.90;;;;;;5016435;28;20037;-62
2024/03/31 01:05:58;;;;;;;16.60;2.05;;;12.40;68.50;;;;;;5025543;28;20041;-62
2024/03/31 01:08:24;;;;;;;17.42;1.88;;;12.40;68.80;;;;;;4993808;28;20045;-62
2024/03/31 01:10:50;;;;;;;18.00;2.30;;;12.40;68.60;;;;;;5004507;28;20112;-61
2024/03/31 01:13:16;;;;;;;20.45;2.00;;;12.40;68.60;;;;;;4986583;28;20556;-62
2024/03/31 01:15:42;;;;;;;17.77;2.47;;;12.40;68.40;;;;;;4992884;28;20113;-62
2024/03/31 01:18:07;;;;;;;16.05;2.03;;;12.40;68.40;;;;;;4999086;28;20026;-62
2024/03/31 01:20:33;;;;;;;21.00;2.25;;;12.40;68.30;;;;;;4995087;28;20089;-61
2024/03/31 01:23:02;;;;;;;16.77;2.20;;;12.50;68.20;;;;;;4985757;28;20520;-62
2024/03/31 01:25:28;;;;;;;22.30;1.98;;;12.40;68.10;;;;;;4985831;28;20038;-62
2024/03/31 01:27:53;;;;;;;24.05;2.42;;;12.40;68.10;;;;;;4990267;28;20042;-62
2024/03/31 01:30:19;;;;;;;18.45;2.50;;;12.40;67.90;;;;;;4989176;28;20031;-62
2024/03/31 01:32:45;;;;;;;19.08;2.10;;;12.30;68.20;;;;;;4997501;28;20081;-62
2024/03/31 01:35:11;;;;;;;21.38;2.20;;;12.30;68.30;;;;;;4993079;28;20041;-62
2024/03/31 01:37:36;;;;;;;15.82;1.95;;;12.30;68.60;;;;;;4983228;28;20031;-62
2024/03/31 01:40:02;;;;;;;19.83;2.33;;;12.30;68.70;;;;;;4986894;28;20038;-62
2024/03/31 01:42:28;;;;;;;16.33;2.38;;;12.20;68.60;;;;;;4987640;28;20034;-62
2024/03/31 01:44:54;;;;;;;13.32;1.70;;;12.20;68.60;;;;;;4987271;28;20062;-62
2024/03/31 01:47:19;;;;;;;18.45;2.72;;;12.20;68.80;;;;;;4988629;28;20038;-62
2024/03/31 01:49:45;;;;;;;19.00;2.22;;;12.20;69.00;;;;;;4993893;28;20034;-62
2024/03/31 01:52:10;;;;;;;19.58;2.20;;;12.10;69.20;;;;;;4988522;28;20034;-62
2024/03/31 01:54:37;;;;;;;14.82;1.88;;;12.00;69.30;;;;;;4994012;28;20125;-62
2024/03/31 01:57:04;;;;;;;16.25;1.95;;;12.00;69.60;;;;;;4992673;28;20030;-62
2024/03/31 01:59:29;;;;;;;17.52;2.08;;;12.00;70.00;;;;;;4992348;28;20068;-62
2024/03/31 02:01:55;;;;;;;14.88;2.22;;;11.90;69.90;;;;;;4994718;28;20053;-62
2024/03/31 02:04:20;;;;;;;17.42;2.33;;;12.00;70.10;;;;;;4984830;28;20050;-62
2024/03/31 02:06:46;;;;;;;18.13;2.30;;;11.90;70.20;;;;;;4983808;28;20129;-62
2024/03/31 02:09:12;;;;;;;12.00;2.20;;;11.90;70.40;;;;;;4983698;28;20494;-62
2024/03/31 02:11:37;;;;;;;21.30;2.38;;;11.80;70.40;;;;;;4984121;28;20034;-64
2024/03/31 02:14:03;;;;;;;16.92;2.17;;;11.80;70.50;;;;;;4988801;28;20038;-63
2024/03/31 02:16:28;;;;;;;19.27;2.83;;;11.80;70.60;;;;;;4994824;28;20066;-64
2024/03/31 02:18:54;;;;;;;15.60;2.47;;;11.70;70.60;;;;;;4994040;28;20449;-64
2024/03/31 02:21:19;;;;;;;15.15;1.80;;;11.60;70.60;;;;;;4982831;28;20039;-63
2024/03/31 02:23:45;;;;;;;18.17;2.17;;;11.50;70.40;;;;;;4989239;28;20568;-63
2024/03/31 02:26:10;;;;;;;12.70;2.13;;;11.50;70.40;;;;;;4979166;28;20445;-63
2024/03/31 02:28:36;;;;;;;17.17;2.40;;;11.40;70.60;;;;;;4984323;28;20133;-64
2024/03/31 02:31:02;;;;;;;22.83;2.40;;;11.30;70.60;;;;;;4982791;28;20046;-64
2024/03/31 02:33:28;;;;;;;18.40;2.30;;;11.30;70.60;;;;;;4983405;28;20104;-64
2024/03/31 02:35:53;;;;;;;14.80;2.25;;;11.30;70.60;;;;;;4981576;28;20115;-63
2024/03/31 02:38:19;;;;;;;15.48;2.47;;;11.20;70.60;;;;;;4982958;28;20453;-63
2024/03/31 02:40:45;;;;;;;15.63;2.13;;;11.10;70.90;;;;;;4989657;28;20494;-63
2024/03/31 02:43:10;;;;;;;16.63;2.13;;;11.10;70.90;;;;;;4992741;28;20042;-63
2024/03/31 02:45:36;;;;;;;19.73;2.55;;;11.00;70.90;;;;;;4994079;28;20117;-63
2024/03/31 02:48:01;;;;;;;19.85;2.28;;;10.90;71.10;;;;;;4986763;28;20049;-61
2024/03/31 02:50:28;;;;;;;21.90;2.50;;;10.90;71.30;;;;;;4984553;28;20565;-62
2024/03/31 02:52:54;;;;;;;21.30;2.70;;;10.80;71.50;;;;;;4988717;28;20059;-62
2024/03/31 02:55:19;;;;;;;14.75;2.03;;;10.80;71.60;;;;;;4992508;28;20037;-62
2024/03/31 02:57:48;;;;;;;16.50;2.20;;;10.70;71.80;;;;;;4990070;28;20039;-62
2024/03/31 03:00:15;;;;;;;14.95;2.22;;;10.70;72.00;;;;;;4981304;28;20054;-63
2024/03/31 03:02:41;;;;;;;18.95;2.20;;;10.60;71.70;;;;;;4980635;28;20037;-63
2024/03/31 03:05:07;;;;;;;14.45;2.20;;;10.60;71.60;;;;;;4985484;28;20038;-61
2024/03/31 03:07:33;;;;;;;19.75;2.17;;;10.50;71.60;;;;;;4990982;28;20166;-62
2024/03/31 03:09:58;;;;;;;17.55;2.50;;;10.50;71.80;;;;;;4997930;28;20085;-63
2024/03/31 03:12:24;;;;;;;18.67;2.30;;;10.50;71.70;;;;;;4994249;28;20510;-62
2024/03/31 03:14:53;;;;;;;18.33;2.13;;;10.60;72.10;;;;;;4987674;28;20034;-63
2024/03/31 03:17:19;;;;;;;18.70;2.28;;;10.50;72.50;;;;;;4982006;28;20561;-62
2024/03/31 03:19:44;;;;;;;19.60;2.83;;;10.50;72.10;;;;;;4994026;28;20038;-62
2024/03/31 03:22:10;;;;;;;13.57;2.05;;;10.40;71.90;;;;;;4989029;28;20104;-63
2024/03/31 03:24:36;;;;;;;20.35;2.42;;;10.40;71.80;;;;;;4994299;28;20050;-63
2024/03/31 03:27:02;;;;;;;8.75;1.80;;;10.40;71.70;;;;;;4987331;28;20057;-63
2024/03/31 03:29:28;;;;;;;14.18;1.58;;;10.30;71.60;;;;;;4985804;28;20094;-63
2024/03/31 03:31:53;;;;;;;16.30;1.70;;;10.30;71.60;;;;;;4994732;28;20390;-63
2024/03/31 03:34:19;;;;;;;12.43;2.00;;;10.20;71.50;;;;;;4987519;28;20034;-61
2024/03/31 03:36:44;;;;;;;14.55;1.80;;;10.20;71.80;;;;;;4987373;28;20113;-63
2024/03/31 03:39:10;;;;;;;12.02;1.83;;;10.20;71.80;;;;;;4987182;28;20034;-62
2024/03/31 03:41:35;;;;;;;16.42;1.90;;;10.10;71.70;;;;;;4984126;28;20113;-63
2024/03/31 03:44:01;;;;;;;16.13;2.22;;;10.10;71.70;;;;;;4989535;28;20050;-63
2024/03/31 03:46:27;;;;;;;14.80;2.30;;;10.10;71.70;;;;;;4993814;28;20069;-62
2024/03/31 03:48:53;;;;;;;19.80;2.42;;;10.10;71.60;;;;;;4989308;28;20071;-63
2024/03/31 03:51:19;;;;;;;10.32;2.00;;;10.00;71.80;;;;;;4987759;28;20038;-63
2024/03/31 03:53:45;;;;;;;19.48;1.98;;;9.90;71.80;;;;;;4994595;28;20522;-63
2024/03/31 03:56:10;;;;;;;14.73;2.30;;;9.90;72.00;;;;;;4996832;28;20034;-63
2024/03/31 03:58:36;;;;;;;10.63;1.98;;;9.80;72.10;;;;;;4988191;28;20130;-63
2024/03/31 04:01:01;;;;;;;18.17;2.33;;;9.70;72.30;;;;;;4990896;28;20045;-62
2024/03/31 04:03:27;;;;;;;16.30;2.13;;;9.70;72.40;;;;;;4988432;28;20398;-62
2024/03/31 04:05:56;;;;;;;18.55;2.45;;;9.60;72.60;;;;;;4982280;28;20164;-62
2024/03/31 04:08:22;;;;;;;13.27;2.10;;;9.50;72.90;;;;;;4982982;28;20058;-63
2024/03/31 04:10:48;;;;;;;14.98;2.72;;;9.50;72.90;;;;;;4986878;28;20035;-63
2024/03/31 04:13:14;;;;;;;15.02;2.05;;;9.40;73.00;;;;;;4984195;28;20057;-63
2024/03/31 04:15:40;;;;;;;16.17;2.42;;;9.40;73.20;;;;;;4994133;28;20030;-63
2024/03/31 04:18:06;;;;;;;12.40;1.90;;;9.30;73.10;;;;;;4991235;28;20064;-62
2024/03/31 04:20:31;;;;;;;16.58;1.98;;;9.30;73.30;;;;;;4985394;28;20481;-62
2024/03/31 04:22:57;;;;;;;12.25;2.47;;;9.30;74.10;;;;;;4994309;28;20030;-63
2024/03/31 04:25:22;;;;;;;13.38;2.00;;;9.20;73.90;;;;;;4989340;28;20449;-62
2024/03/31 04:27:52;;;;;;;12.68;2.30;;;9.20;73.50;;;;;;4988790;28;20351;-62
2024/03/31 04:30:17;;;;;;;17.98;2.40;;;9.20;73.80;;;;;;4993256;28;20057;-62
2024/03/31 04:32:44;;;;;;;10.85;2.05;;;9.10;73.90;;;;;;4995663;28;20033;-63
2024/03/31 04:35:10;;;;;;;13.73;1.95;;;9.10;74.00;;;;;;4986886;28;20061;-63
2024/03/31 04:37:36;;;;;;;11.25;2.33;;;9.00;74.30;;;;;;4990832;28;20497;-63
2024/03/31 04:40:01;;;;;;;15.02;2.70;;;9.00;74.50;;;;;;4987625;28;20034;-61
2024/03/31 04:42:27;;;;;;;12.18;2.40;;;9.00;74.50;;;;;;4993284;28;20129;-63
2024/03/31 04:44:52;;;;;;;12.52;2.30;;;9.00;74.60;;;;;;4988265;28;20109;-63
2024/03/31 04:47:18;;;;;;;17.30;2.53;;;9.10;74.60;;;;;;4991387;28;20038;-63
2024/03/31 04:49:45;;;;;;;12.48;2.53;;;9.10;74.50;;;;;;4987945;28;20485;-62
2024/03/31 04:52:11;;;;;;;19.15;2.25;;;9.10;74.60;;;;;;4988078;28;20097;-62
2024/03/31 04:54:36;;;;;;;13.20;2.30;;;9.10;74.60;;;;;;4983413;28;20034;-61
2024/03/31 04:57:02;;;;;;;11.55;1.80;;;9.10;74.80;;;;;;4984445;28;20127;-62
2024/03/31 04:59:28;;;;;;;17.20;2.53;;;9.10;74.70;;;;;;4998237;28;20146;-61
2024/03/31 05:01:53;;;;;;;15.85;2.00;;;9.10;74.90;;;;;;4991825;28;20090;-61
2024/03/31 05:04:19;;;;;;;13.32;2.45;;;9.10;75.00;;;;;;4994073;28;20089;-62
2024/03/31 05:06:45;;;;;;;12.52;2.67;;;9.10;75.00;;;;;;4993528;28;20577;-63
2024/03/31 05:09:12;;;;;;;17.98;2.50;;;9.10;75.00;;;;;;4983754;28;20078;-62
2024/03/31 05:11:37;;;;;;;13.60;2.45;;;9.10;75.10;;;;;;4995214;28;20558;-62
2024/03/31 05:14:03;;;;;;;15.27;3.15;;;9.10;75.00;;;;;;4991059;28;20030;-63
2024/03/31 05:16:28;;;;;;;10.90;2.97;;;9.10;75.30;;;;;;4984403;28;20037;-63
2024/03/31 05:18:54;;;;;;;12.45;3.17;;;9.00;75.30;;;;;;4994294;28;20039;-63
2024/03/31 05:21:20;;;;;;;11.07;2.60;;;9.00;75.30;;;;;;4986207;28;20613;-63
2024/03/31 05:23:46;;;;;;;13.90;3.28;;;9.00;75.30;;;;;;4990017;28;20033;-63
2024/03/31 05:26:15;;;;;;;13.18;2.85;;;9.10;75.20;;;;;;4993572;28;20039;-62
2024/03/31 05:28:41;;;;;;;15.50;3.10;;;9.10;75.30;;;;;;4990265;28;20400;-63
2024/03/31 05:31:06;;;;;;;13.52;3.22;;;9.10;75.10;;;;;;4982317;28;20039;-62
2024/03/31 05:33:34;;;;;;;16.40;3.28;;;9.10;75.00;;;;;;4984641;28;20062;-62
2024/03/31 05:36:00;;;;;;;15.50;4.00;;;9.20;75.10;;;;;;4982028;28;20031;-62
2024/03/31 05:38:26;;;;;;;13.48;3.80;;;9.20;75.10;;;;;;4981509;28;20053;-63
2024/03/31 05:40:52;;;;;;;13.32;4.32;;;9.10;75.10;;;;;;4981359;28;20046;-63
2024/03/31 05:43:17;;;;;;;18.13;4.43;;;9.10;75.10;;;;;;4978642;28;20034;-63
2024/03/31 05:45:43;;;;;;;13.88;4.43;;;9.10;75.10;;;;;;4990723;28;20034;-62
2024/03/31 05:48:11;;;;;;;15.25;3.65;;;9.10;75.30;;;;;;4991472;28;20050;-61
2024/03/31 05:50:36;;;;;;;13.07;3.50;;;9.10;75.40;;;;;;4983937;28;20033;-62
2024/03/31 05:53:03;;;;;;;16.92;3.83;;;9.10;75.40;;;;;;4982676;28;20043;-62
2024/03/31 05:55:28;;;;;;;18.50;4.30;;;9.10;75.50;;;;;;4981615;28;20088;-62
2024/03/31 05:57:54;;;;;;;14.85;3.83;;;9.10;75.80;;;;;;4993316;28;20046;-62
2024/03/31 06:00:20;;;;;;;19.67;4.13;;;9.10;76.70;;;;;;4985596;28;20035;-61
2024/03/31 06:02:46;;;;;;;19.17;4.40;;;9.10;76.00;;;;;;4982358;28;20045;-63
2024/03/31 06:05:11;;;;;;;11.82;4.00;;;9.10;76.20;;;;;;4980359;28;20362;-62
2024/03/31 06:07:37;;;;;;;19.90;3.88;;;9.10;76.10;;;;;;4987663;28;20042;-63
2024/03/31 06:10:03;;;;;;;16.55;3.58;;;9.10;76.20;;;;;;4987552;28;20034;-63
2024/03/31 06:12:28;;;;;;;15.25;3.30;;;9.20;76.50;;;;;;4984597;28;20404;-62
2024/03/31 06:14:54;;;;;;;13.82;2.92;;;9.20;76.40;;;;;;4985802;28;20053;-63
2024/03/31 06:17:20;;;;;;;11.65;2.92;;;9.20;76.50;;;;;;4989744;28;20070;-62
2024/03/31 06:19:46;;;;;;;14.60;2.53;;;9.30;76.60;;;;;;4993779;28;20034;-62
2024/03/31 06:22:11;;;;;;;22.33;2.67;;;9.30;76.60;;;;;;4990733;28;20046;-61
2024/03/31 06:24:37;;;;;;;15.65;2.47;;;9.30;76.70;;;;;;4985571;28;20555;-63
2024/03/31 06:27:03;;;;;;;19.45;3.03;;;9.40;76.70;;;;;;4982041;28;20031;-63
2024/03/31 06:29:28;;;;;;;18.23;4.53;;;9.40;76.50;;;;;;4991222;28;20125;-62
2024/03/31 06:31:54;;;;;;;14.07;3.00;;;9.40;76.50;;;;;;4990914;28;20124;-63
2024/03/31 06:34:19;;;;;;;17.45;2.85;;;9.50;76.60;;;;;;4981240;28;20041;-62
2024/03/31 06:36:45;;;;;;;16.48;2.85;;;9.50;76.60;;;;;;4990164;28;20121;-62
2024/03/31 06:39:12;;;;;;;19.80;3.10;;;9.50;76.50;;;;;;4980764;28;20038;-62
2024/03/31 06:41:37;;;;;;;13.57;2.97;;;9.60;76.50;;;;;;4984528;28;20042;-62
2024/03/31 06:44:03;;;;;;;17.63;3.03;;;9.60;76.60;;;;;;4980129;28;20030;-62
2024/03/31 06:46:28;;;;;;;8.88;2.83;;;9.60;76.70;;;;;;4983488;28;20026;-62
2024/03/31 06:48:54;;;;;;;14.52;3.00;;;9.60;76.70;;;;;;4984895;28;20040;-63
2024/03/31 06:51:20;;;;;;;19.10;3.70;;;9.70;76.70;;;;;;4982440;28;20066;-62
2024/03/31 06:53:47;;;;;;;12.88;3.65;;;9.70;76.70;;;;;;4978079;28;20037;-62
2024/03/31 06:56:13;;;;;;;22.25;5.35;;;9.70;76.80;;;;;;4981148;28;20084;-62
2024/03/31 06:58:38;;;;;;;24.08;6.05;;;9.70;76.60;;;;;;4975069;28;20065;-62
2024/03/31 07:01:04;;;;;;;40.90;15.80;;;9.80;76.80;;;;;;4976060;28;20034;-63
2024/03/31 07:03:29;;;;;;;42.92;14.93;;;9.80;76.70;;;;;;4982965;28;20042;-62
2024/03/31 07:05:55;;;;;;;24.65;7.68;;;9.90;76.90;;;;;;4983379;28;20034;-63
2024/03/31 07:08:20;;;;;;;19.40;4.50;;;9.90;76.80;;;;;;4978108;28;20038;-61
2024/03/31 07:10:47;;;;;;;18.95;3.78;;;9.90;77.00;;;;;;4984141;28;20153;-63
2024/03/31 07:13:12;;;;;;;16.88;3.70;;;10.00;77.10;;;;;;4981376;28;20573;-63
2024/03/31 07:15:38;;;;;;;16.85;3.40;;;10.00;77.20;;;;;;4982594;28;20517;-63
2024/03/31 07:18:08;;;;;;;11.45;3.20;;;10.10;78.20;;;;;;4980932;28;20062;-63
2024/03/31 07:20:35;;;;;;;18.60;3.08;;;10.10;77.40;;;;;;4985157;28;20421;-63
2024/03/31 07:23:05;;;;;;;19.23;3.13;;;10.10;77.50;;;;;;4983560;28;20403;-63
2024/03/31 07:25:32;;;;;;;15.02;4.53;;;10.20;77.70;;;;;;4983562;28;20030;-63
2024/03/31 07:27:57;;;;;;;22.67;3.75;;;10.20;77.80;;;;;;4996766;28;20509;-63
2024/03/31 07:30:23;;;;;;;18.83;3.17;;;10.30;77.90;;;;;;4985489;28;20184;-63
2024/03/31 07:32:48;;;;;;;23.83;5.50;;;10.40;78.00;;;;;;4988441;28;20026;-63
2024/03/31 07:35:15;;;;;;;20.35;5.05;;;10.40;78.20;;;;;;5001253;28;20437;-63
2024/03/31 07:37:40;;;;;;;13.70;3.60;;;10.50;78.10;;;;;;5003754;28;20091;-62
2024/03/31 07:40:07;;;;;;;17.35;3.03;;;10.60;77.90;;;;;;5002746;28;20050;-63
2024/03/31 07:42:32;;;;;;;16.90;3.63;;;10.70;78.00;;;;;;5009007;28;20037;-63
2024/03/31 07:44:58;;;;;;;21.20;3.47;;;10.70;78.10;;;;;;5005441;28;20413;-63
2024/03/31 07:47:23;;;;;;;13.98;3.22;;;10.80;78.40;;;;;;4995540;28;20517;-62
2024/03/31 07:49:49;;;;;;;20.80;3.13;;;10.90;79.30;;;;;;4996455;28;20038;-63
2024/03/31 07:52:15;;;;;;;26.42;2.97;;;11.00;78.60;;;;;;5005664;28;20038;-61
2024/03/31 07:54:40;;;;;;;19.95;2.90;;;11.10;78.60;;;;;;4997225;28;20033;-61
2024/03/31 07:57:06;;;;;;;23.73;3.00;;;11.10;78.40;;;;;;4997159;28;20409;-62
2024/03/31 07:59:31;;;;;;;18.17;3.00;;;11.30;78.50;;;;;;5010492;28;20026;-63
2024/03/31 08:01:57;;;;;;;20.65;3.08;;;11.30;78.30;;;;;;5004139;28;20022;-61
2024/03/31 08:04:23;;;;;;;17.63;3.05;;;11.40;78.00;;;;;;5004929;28;20405;-63
2024/03/31 08:06:49;;;;;;;22.92;3.20;;;11.50;77.80;;;;;;5015397;28;20025;-63
2024/03/31 08:09:14;;;;;;;20.23;2.95;;;11.60;78.60;;;;;;5001899;28;20129;-61
2024/03/31 08:11:40;;;;;;;15.68;2.78;;;11.70;77.70;;;;;;5008875;28;20048;-61
2024/03/31 08:14:05;;;;;;;21.63;3.00;;;11.70;77.50;;;;;;5006650;28;20414;-60
2024/03/31 08:16:31;;;;;;;20.63;3.13;;;11.80;77.30;;;;;;5014377;28;20033;-63
2024/03/31 08:18:57;;;;;;;18.70;3.03;;;11.90;77.50;;;;;;5017783;28;20026;-62
2024/03/31 08:21:23;;;;;;;18.45;3.08;;;11.90;77.30;;;;;;5004608;28;20098;-63
2024/03/31 08:23:50;;;;;;;12.80;3.65;;;12.00;77.70;;;;;;5010471;28;20041;-62
2024/03/31 08:26:15;;;;;;;23.55;3.53;;;12.00;77.40;;;;;;5016064;28;20046;-61
2024/03/31 08:28:41;;;;;;;22.65;3.55;;;12.00;77.70;;;;;;5007053;28;20065;-59
2024/03/31 08:31:06;;;;;;;25.20;3.50;;;12.10;77.70;;;;;;5005077;28;20034;-61
2024/03/31 08:33:32;;;;;;;17.92;2.55;;;12.10;77.70;;;;;;5005015;28;20117;-61
2024/03/31 08:35:58;;;;;;;19.00;3.45;;;12.20;77.70;;;;;;5016387;28;20522;-63
2024/03/31 08:38:24;;;;;;;22.63;3.60;;;12.10;78.00;;;;;;5008195;28;20038;-61
2024/03/31 08:41:05;;;;;;;23.63;3.38;;;12.20;78.20;;;;;;5003596;28;20125;-63
2024/03/31 08:43:35;;;;;;;14.77;3.05;;;12.30;78.50;;;;;;5012792;28;20410;-63
2024/03/31 08:46:01;;;;;;;21.55;2.92;;;12.30;77.90;;;;;;5011099;28;20029;-62
2024/03/31 08:48:31;;;;;;;15.77;3.22;;;12.40;77.90;;;;;;5014299;28;20621;-61
2024/03/31 08:50:58;;;;;;;18.50;3.08;;;12.50;77.90;;;;;;5016556;28;20504;-61
2024/03/31 08:53:25;;;;;;;20.95;3.55;;;12.50;77.70;;;;;;5009589;28;20064;-62
2024/03/31 08:55:50;;;;;;;17.10;3.08;;;12.60;77.60;;;;;;5001829;28;20041;-61
2024/03/31 08:58:16;;;;;;;15.02;3.08;;;12.70;77.30;;;;;;5006005;28;20027;-61
2024/03/31 09:00:43;;;;;;;17.02;3.30;;;12.80;77.30;;;;;;5013520;28;20030;-61
2024/03/31 09:03:09;;;;;;;33.00;3.47;;;12.90;77.70;;;;;;5010266;28;20179;-62
2024/03/31 09:05:39;;;;;;;21.33;3.28;;;13.00;78.00;;;;;;5007871;28;20034;-62
2024/03/31 09:08:06;;;;;;;19.48;3.30;;;13.10;78.50;;;;;;5002891;28;20057;-61
2024/03/31 09:10:32;;;;;;;21.65;2.70;;;13.10;78.50;;;;;;5013105;28;20053;-62
2024/03/31 09:12:57;;;;;;;21.48;2.83;;;13.20;78.20;;;;;;5003796;28;20091;-61
2024/03/31 09:15:23;;;;;;;21.60;3.10;;;13.30;77.70;;;;;;5015108;28;20052;-62
2024/03/31 09:17:48;;;;;;;22.63;3.03;;;13.40;77.50;;;;;;5003271;28;20040;-60
2024/03/31 09:20:14;;;;;;;20.75;2.85;;;13.60;77.00;;;;;;5003114;28;20508;-61
2024/03/31 09:22:40;;;;;;;25.45;3.17;;;13.70;76.50;;;;;;5010635;28;20034;-62
2024/03/31 09:25:09;;;;;;;22.45;2.70;;;13.80;76.30;;;;;;5013302;28;20341;-62
2024/03/31 09:27:35;;;;;;;21.45;2.38;;;13.90;75.60;;;;;;5001919;28;20030;-63
2024/03/31 09:30:03;;;;;;;18.90;2.22;;;14.00;74.90;;;;;;5004192;28;20037;-62
2024/03/31 09:32:28;;;;;;;26.30;2.80;;;14.10;74.40;;;;;;5012824;28;20417;-63
2024/03/31 09:34:54;;;;;;;15.20;2.50;;;14.20;73.90;;;;;;5008967;28;20038;-62
2024/03/31 09:37:20;;;;;;;21.30;3.08;;;14.30;73.50;;;;;;5007323;28;20045;-63
2024/03/31 09:39:46;;;;;;;20.48;3.28;;;14.40;73.20;;;;;;5005460;28;20174;-62
2024/03/31 09:42:12;;;;;;;20.92;2.70;;;14.50;73.70;;;;;;5006958;28;20505;-62
2024/03/31 09:44:41;;;;;;;25.27;3.90;;;14.60;72.20;;;;;;5012076;28;20473;-60
2024/03/31 09:47:30;;;;;;;23.83;2.53;;;14.70;71.40;;;;;;5011934;28;20030;-60
2024/03/31 09:50:23;;;;;;;20.77;2.75;;;14.90;71.10;;;;;;5001364;28;20027;-63
2024/03/31 09:53:04;;;;;;;27.92;2.88;;;15.00;70.10;;;;;;4995194;28;20072;-61
2024/03/31 09:55:39;;;;;;;22.42;3.00;;;15.10;70.40;;;;;;5017421;28;20029;-63
2024/03/31 09:58:11;;;;;;;23.00;3.13;;;15.20;70.10;;;;;;5017853;28;20042;-61
2024/03/31 10:00:41;;;;;;;23.83;2.78;;;15.30;70.20;;;;;;4999734;28;20029;-62
2024/03/31 10:03:16;;;;;;;17.10;2.90;;;15.40;69.70;;;;;;5010197;28;20034;-62
2024/03/31 10:05:43;;;;;;;;;;;15.50;69.20;;;;;;5005040;28;20706;-63
2024/03/31 10:08:09;;;;;;;20.48;3.03;;;15.60;69.20;;;;;;5004873;28;19917;-60
2024/03/31 10:10:37;;;;;;;19.88;2.40;;;15.70;69.20;;;;;;5021363;28;20033;-63
2024/03/31 10:13:04;;;;;;;18.27;2.75;;;15.80;68.60;;;;;;5026849;28;20497;-62
2024/03/31 10:15:31;;;;;;;15.00;1.85;;;15.80;68.00;;;;;;5015317;28;20501;-62
2024/03/31 10:17:59;;;;;;;20.63;2.58;;;15.90;68.50;;;;;;5011740;28;20033;-62
2024/03/31 10:20:26;;;;;;;17.05;2.35;;;16.00;67.30;;;;;;5014275;28;20038;-63
2024/03/31 10:22:54;;;;;;;20.92;2.58;;;16.10;67.10;;;;;;5017485;28;20065;-62
2024/03/31 10:25:22;;;;;;;19.27;2.42;;;16.10;66.70;;;;;;5017228;28;20041;-62
2024/03/31 10:27:51;;;;;;;15.38;2.60;;;16.20;66.40;;;;;;5011992;28;20103;-61
2024/03/31 10:30:18;;;;;;;18.23;2.83;;;16.20;65.90;;;;;;5011581;28;20504;-62
2024/03/31 10:32:45;;;;;;;17.83;2.58;;;16.20;66.00;;;;;;5017689;28;20026;-62
2024/03/31 10:35:11;;;;;;;20.95;2.67;;;16.30;65.90;;;;;;5010735;28;20516;-62
2024/03/31 10:37:37;;;;;;;14.98;1.83;;;16.40;65.70;;;;;;5013624;28;20038;-61
2024/03/31 10:40:05;;;;;;;17.90;2.55;;;16.30;65.30;;;;;;5015803;28;20479;-62
2024/03/31 10:42:31;;;;;;;16.92;2.47;;;16.40;65.20;;;;;;5009743;28;20034;-62
2024/03/31 10:44:57;;;;;;;14.30;2.25;;;16.40;65.30;;;;;;5011639;28;20548;-61
2024/03/31 10:47:22;;;;;;;14.15;2.25;;;16.40;65.20;;;;;;5013170;28;20221;-63
2024/03/31 10:49:58;;;;;;;14.50;2.83;;;16.40;65.00;;;;;;5007158;28;20493;-62
2024/03/31 10:52:31;;;;;;;18.52;2.30;;;16.50;64.30;;;;;;5021471;28;20054;-61
2024/03/31 10:54:59;;;;;;;21.08;2.90;;;16.50;64.50;;;;;;5011090;28;20026;-63
2024/03/31 10:57:34;;;;;;;17.13;2.10;;;16.50;64.10;;;;;;5008007;28;20034;-61
2024/03/31 11:00:01;;;;;;;16.38;2.28;;;16.50;63.80;;;;;;5009481;28;20041;-63
2024/03/31 11:02:27;;;;;;;20.85;2.13;;;16.50;64.00;;;;;;5015745;28;20393;-62
2024/03/31 11:05:11;;;;;;;20.27;2.40;;;16.50;64.00;;;;;;5011961;28;20068;-61
2024/03/31 11:07:40;;;;;;;22.55;2.60;;;16.50;63.70;;;;;;5020417;28;20121;-63
2024/03/31 11:10:07;;;;;;;20.02;1.92;;;16.50;64.10;;;;;;5005694;28;20046;-63
2024/03/31 11:12:35;;;;;;;19.00;2.50;;;16.60;64.10;;;;;;5012436;28;20030;-61
2024/03/31 11:15:01;;;;;;;19.13;2.17;;;16.60;64.10;;;;;;5010924;28;20112;-63
2024/03/31 11:17:30;;;;;;;19.92;2.28;;;16.60;64.20;;;;;;5017091;28;20713;-62
2024/03/31 11:19:58;;;;;;;21.63;2.45;;;16.60;64.30;;;;;;5015322;28;20103;-63
2024/03/31 11:22:25;;;;;;;16.77;2.60;;;16.70;64.00;;;;;;5007072;28;20042;-62
2024/03/31 11:24:51;;;;;;;15.00;2.33;;;16.80;63.80;;;;;;5016487;28;20034;-62
2024/03/31 11:27:19;;;;;;;15.38;2.42;;;16.80;63.50;;;;;;4999246;28;20042;-60
2024/03/31 11:29:44;;;;;;;21.60;2.40;;;16.90;62.90;;;;;;5000668;28;20192;-63
2024/03/31 11:32:11;;;;;;;22.55;2.17;;;16.90;62.90;;;;;;5001313;28;20509;-63
2024/03/31 11:34:38;;;;;;;19.95;2.38;;;17.00;62.70;;;;;;5006911;28;20026;-60
2024/03/31 11:37:05;;;;;;;20.17;2.60;;;17.10;62.40;;;;;;4994139;28;20125;-63
2024/03/31 11:39:34;;;;;;;15.13;2.72;;;17.00;62.30;;;;;;5012598;28;20040;-63
2024/03/31 11:42:00;;;;;;;20.65;2.92;;;17.10;62.40;;;;;;5001358;28;20092;-63
2024/03/31 11:44:27;;;;;;;22.92;2.75;;;17.00;62.40;;;;;;5009712;28;20502;-61
2024/03/31 11:46:52;;;;;;;15.95;2.58;;;17.10;62.40;;;;;;5013713;28;20113;-63
2024/03/31 11:49:18;;;;;;;24.10;2.88;;;17.00;62.40;;;;;;5003484;28;20125;-63
2024/03/31 11:51:44;;;;;;;19.77;2.72;;;17.10;62.60;;;;;;5015355;28;20045;-62
2024/03/31 11:54:10;;;;;;;15.43;2.17;;;17.10;62.80;;;;;;4994340;28;20039;-62
2024/03/31 11:56:39;;;;;;;15.15;2.58;;;17.10;62.70;;;;;;5002750;28;20488;-63
2024/03/31 11:59:15;;;;;;;21.20;2.83;;;17.10;62.80;;;;;;5004808;28;20101;-63
2024/03/31 12:01:41;;;;;;;19.17;2.38;;;17.20;62.80;;;;;;4999465;28;20072;-63
2024/03/31 12:04:06;;;;;;;16.15;2.88;;;17.20;63.00;;;;;;4994280;28;20502;-63
2024/03/31 12:06:33;;;;;;;14.88;2.00;;;17.30;62.60;;;;;;5003950;28;20038;-63
2024/03/31 12:08:58;;;;;;;19.77;2.53;;;17.30;62.50;;;;;;4995604;28;20041;-62
2024/03/31 12:11:24;;;;;;;17.23;2.67;;;17.40;62.50;;;;;;5005926;28;20041;-63
2024/03/31 12:13:51;;;;;;;17.75;2.90;;;17.40;62.40;;;;;;5003596;28;20042;-63
2024/03/31 12:16:17;;;;;;;14.27;2.28;;;17.50;62.50;;;;;;5005249;28;20038;-62
2024/03/31 12:18:43;;;;;;;18.42;2.50;;;17.60;62.60;;;;;;5016404;28;20087;-63
2024/03/31 12:21:09;;;;;;;15.70;2.75;;;17.60;62.40;;;;;;5008874;28;20443;-63
2024/03/31 12:23:35;;;;;;;19.67;2.40;;;17.70;62.50;;;;;;5010498;28;20574;-60
2024/03/31 12:26:03;;;;;;;22.23;2.63;;;17.80;62.20;;;;;;5009421;28;20442;-63
2024/03/31 12:28:29;;;;;;;17.45;2.72;;;17.80;62.10;;;;;;5011605;28;20046;-60
2024/03/31 12:30:56;;;;;;;15.15;2.05;;;17.90;62.10;;;;;;5009486;28;20034;-62
2024/03/31 12:33:21;;;;;;;16.00;2.50;;;17.90;62.20;;;;;;5019230;28;20038;-61
2024/03/31 12:35:47;;;;;;;16.15;2.30;;;18.00;61.90;;;;;;5014106;28;20184;-61